sensor_id;sensor_type;location;lat;lon;timestamp;P1;durP1;ratioP1;P2;durP2;ratioP2
66384;SDS011;53426;55.872;37.462;2022-08-02T00:01:42;8.10;;;4.18;;
66384;SDS011;53426;55.872;37.462;2022-08-02T00:04:09;10.00;;;4.07;;
66384;SDS011;53426;55.872;37.462;2022-08-02T00:06:35;7.43;;;4.20;;
66384;SDS011;53426;55.872;37.462;2022-08-02T00:09:02;10.50;;;4.60;;
66384;SDS011;53426;55.872;37.462;2022-08-02T00:11:29;7.18;;;4.10;;
66384;SDS011;53426;55.872;37.462;2022-08-02T00:13:55;14.85;;;4.55;;
66384;SDS011;53426;55.872;37.462;2022-08-02T00:16:20;20.02;;;5.10;;
66384;SDS011;53426;55.872;37.462;2022-08-02T00:18:46;16.10;;;4.60;;
66384;SDS011;53426;55.872;37.462;2022-08-02T00:21:12;12.23;;;5.22;;
66384;SDS011;53426;55.872;37.462;2022-08-02T00:23:38;26.27;;;4.85;;
66384;SDS011;53426;55.872;37.462;2022-08-02T00:26:03;15.30;;;5.40;;
66384;SDS011;53426;55.872;37.462;2022-08-02T00:28:29;17.67;;;5.60;;
66384;SDS011;53426;55.872;37.462;2022-08-02T00:30:56;13.65;;;5.03;;
66384;SDS011;53426;55.872;37.462;2022-08-02T00:33:22;11.38;;;5.50;;
66384;SDS011;53426;55.872;37.462;2022-08-02T00:35:48;25.25;;;6.30;;
66384;SDS011;53426;55.872;37.462;2022-08-02T00:38:14;24.02;;;5.53;;
66384;SDS011;53426;55.872;37.462;2022-08-02T00:40:40;28.15;;;5.95;;
66384;SDS011;53426;55.872;37.462;2022-08-02T00:43:11;22.33;;;6.05;;
66384;SDS011;53426;55.872;37.462;2022-08-02T00:45:37;32.58;;;6.60;;
66384;SDS011;53426;55.872;37.462;2022-08-02T00:48:04;27.13;;;6.97;;
66384;SDS011;53426;55.872;37.462;2022-08-02T00:50:31;32.25;;;7.03;;
66384;SDS011;53426;55.872;37.462;2022-08-02T00:52:58;25.77;;;8.00;;
66384;SDS011;53426;55.872;37.462;2022-08-02T00:55:24;23.42;;;7.88;;
66384;SDS011;53426;55.872;37.462;2022-08-02T00:57:50;23.70;;;8.75;;
66384;SDS011;53426;55.872;37.462;2022-08-02T01:00:16;41.15;;;9.18;;
66384;SDS011;53426;55.872;37.462;2022-08-02T01:02:42;35.40;;;8.63;;
66384;SDS011;53426;55.872;37.462;2022-08-02T01:05:08;30.58;;;8.32;;
66384;SDS011;53426;55.872;37.462;2022-08-02T01:07:34;21.17;;;8.07;;
66384;SDS011;53426;55.872;37.462;2022-08-02T01:10:00;23.40;;;7.57;;
66384;SDS011;53426;55.872;37.462;2022-08-02T01:12:28;27.92;;;7.97;;
66384;SDS011;53426;55.872;37.462;2022-08-02T01:14:55;29.17;;;7.50;;
66384;SDS011;53426;55.872;37.462;2022-08-02T01:23:04;29.13;;;6.78;;
66384;SDS011;53426;55.872;37.462;2022-08-02T01:25:56;18.73;;;6.53;;
66384;SDS011;53426;55.872;37.462;2022-08-02T01:36:26;20.95;;;6.72;;
66384;SDS011;53426;55.872;37.462;2022-08-02T01:38:57;24.75;;;6.18;;
66384;SDS011;53426;55.872;37.462;2022-08-02T01:41:25;19.70;;;6.80;;
66384;SDS011;53426;55.872;37.462;2022-08-02T01:43:56;21.27;;;6.53;;
66384;SDS011;53426;55.872;37.462;2022-08-02T01:46:24;27.42;;;7.10;;
66384;SDS011;53426;55.872;37.462;2022-08-02T01:48:52;28.02;;;7.30;;
66384;SDS011;53426;55.872;37.462;2022-08-02T01:51:19;36.13;;;7.45;;
66384;SDS011;53426;55.872;37.462;2022-08-02T01:54:09;21.40;;;6.30;;
66384;SDS011;53426;55.872;37.462;2022-08-02T01:56:38;26.30;;;7.72;;
66384;SDS011;53426;55.872;37.462;2022-08-02T01:59:07;24.67;;;6.70;;
66384;SDS011;53426;55.872;37.462;2022-08-02T02:01:37;22.55;;;6.38;;
66384;SDS011;53426;55.872;37.462;2022-08-02T02:04:06;23.52;;;7.25;;
66384;SDS011;53426;55.872;37.462;2022-08-02T02:06:33;30.98;;;6.15;;
66384;SDS011;53426;55.872;37.462;2022-08-02T02:09:00;30.83;;;6.40;;
66384;SDS011;53426;55.872;37.462;2022-08-02T02:11:27;25.13;;;6.10;;
66384;SDS011;53426;55.872;37.462;2022-08-02T02:13:54;23.50;;;6.40;;
66384;SDS011;53426;55.872;37.462;2022-08-02T02:16:25;21.33;;;5.95;;
66384;SDS011;53426;55.872;37.462;2022-08-02T02:18:52;16.70;;;5.68;;
66384;SDS011;53426;55.872;37.462;2022-08-02T02:21:19;21.50;;;5.63;;
66384;SDS011;53426;55.872;37.462;2022-08-02T02:23:45;14.88;;;5.75;;
66384;SDS011;53426;55.872;37.462;2022-08-02T02:26:12;13.65;;;5.53;;
66384;SDS011;53426;55.872;37.462;2022-08-02T02:28:41;13.38;;;4.90;;
66384;SDS011;53426;55.872;37.462;2022-08-02T02:31:11;23.08;;;5.68;;
66384;SDS011;53426;55.872;37.462;2022-08-02T02:33:48;19.13;;;6.30;;
66384;SDS011;53426;55.872;37.462;2022-08-02T02:36:17;16.33;;;5.90;;
66384;SDS011;53426;55.872;37.462;2022-08-02T02:38:45;13.23;;;6.28;;
66384;SDS011;53426;55.872;37.462;2022-08-02T02:41:12;18.00;;;5.75;;
66384;SDS011;53426;55.872;37.462;2022-08-02T02:43:40;11.88;;;6.15;;
66384;SDS011;53426;55.872;37.462;2022-08-02T02:46:09;12.95;;;5.53;;
66384;SDS011;53426;55.872;37.462;2022-08-02T02:48:36;15.75;;;5.68;;
66384;SDS011;53426;55.872;37.462;2022-08-02T02:51:03;14.23;;;5.60;;
66384;SDS011;53426;55.872;37.462;2022-08-02T02:53:30;12.85;;;5.03;;
66384;SDS011;53426;55.872;37.462;2022-08-02T02:55:56;18.10;;;5.75;;
66384;SDS011;53426;55.872;37.462;2022-08-02T02:58:23;15.77;;;5.40;;
66384;SDS011;53426;55.872;37.462;2022-08-02T03:00:49;20.55;;;5.88;;
66384;SDS011;53426;55.872;37.462;2022-08-02T03:03:34;7.47;;;5.60;;
66384;SDS011;53426;55.872;37.462;2022-08-02T03:06:01;14.35;;;5.65;;
66384;SDS011;53426;55.872;37.462;2022-08-02T03:08:27;9.93;;;5.75;;
66384;SDS011;53426;55.872;37.462;2022-08-02T03:10:53;10.98;;;5.68;;
66384;SDS011;53426;55.872;37.462;2022-08-02T03:13:20;10.13;;;5.35;;
66384;SDS011;53426;55.872;37.462;2022-08-02T03:15:46;14.63;;;5.55;;
66384;SDS011;53426;55.872;37.462;2022-08-02T03:21:02;9.13;;;5.82;;
66384;SDS011;53426;55.872;37.462;2022-08-02T03:23:29;12.75;;;6.15;;
66384;SDS011;53426;55.872;37.462;2022-08-02T03:25:55;12.93;;;5.60;;
66384;SDS011;53426;55.872;37.462;2022-08-02T03:28:22;10.25;;;5.95;;
66384;SDS011;53426;55.872;37.462;2022-08-02T03:30:47;10.07;;;6.13;;
66384;SDS011;53426;55.872;37.462;2022-08-02T03:33:13;10.45;;;6.47;;
66384;SDS011;53426;55.872;37.462;2022-08-02T03:35:40;15.15;;;6.30;;
66384;SDS011;53426;55.872;37.462;2022-08-02T03:38:07;14.93;;;6.38;;
66384;SDS011;53426;55.872;37.462;2022-08-02T03:40:34;16.48;;;6.25;;
66384;SDS011;53426;55.872;37.462;2022-08-02T03:43:01;13.43;;;5.88;;
66384;SDS011;53426;55.872;37.462;2022-08-02T03:45:27;10.65;;;5.90;;
66384;SDS011;53426;55.872;37.462;2022-08-02T03:47:54;18.05;;;7.07;;
66384;SDS011;53426;55.872;37.462;2022-08-02T03:50:21;15.90;;;5.97;;
66384;SDS011;53426;55.872;37.462;2022-08-02T03:52:48;8.82;;;5.65;;
66384;SDS011;53426;55.872;37.462;2022-08-02T03:55:15;15.77;;;5.55;;
66384;SDS011;53426;55.872;37.462;2022-08-02T03:57:41;8.70;;;5.45;;
66384;SDS011;53426;55.872;37.462;2022-08-02T04:00:08;15.07;;;5.75;;
66384;SDS011;53426;55.872;37.462;2022-08-02T04:02:40;17.15;;;5.72;;
66384;SDS011;53426;55.872;37.462;2022-08-02T04:05:06;10.82;;;5.40;;
66384;SDS011;53426;55.872;37.462;2022-08-02T04:07:33;17.73;;;5.28;;
66384;SDS011;53426;55.872;37.462;2022-08-02T04:09:58;12.85;;;5.45;;
66384;SDS011;53426;55.872;37.462;2022-08-02T04:12:24;14.63;;;5.30;;
66384;SDS011;53426;55.872;37.462;2022-08-02T04:14:50;10.40;;;5.07;;
66384;SDS011;53426;55.872;37.462;2022-08-02T04:17:16;16.95;;;5.05;;
66384;SDS011;53426;55.872;37.462;2022-08-02T04:22:26;9.40;;;5.03;;
66384;SDS011;53426;55.872;37.462;2022-08-02T04:24:56;7.50;;;4.60;;
66384;SDS011;53426;55.872;37.462;2022-08-02T04:27:24;11.18;;;5.10;;
66384;SDS011;53426;55.872;37.462;2022-08-02T04:29:51;19.75;;;5.13;;
66384;SDS011;53426;55.872;37.462;2022-08-02T04:32:17;8.25;;;4.75;;
66384;SDS011;53426;55.872;37.462;2022-08-02T04:34:44;9.07;;;3.85;;
66384;SDS011;53426;55.872;37.462;2022-08-02T04:37:11;10.60;;;4.63;;
66384;SDS011;53426;55.872;37.462;2022-08-02T04:39:39;15.50;;;4.55;;
66384;SDS011;53426;55.872;37.462;2022-08-02T04:42:05;8.23;;;4.35;;
66384;SDS011;53426;55.872;37.462;2022-08-02T04:44:32;8.65;;;4.53;;
66384;SDS011;53426;55.872;37.462;2022-08-02T04:46:58;7.13;;;4.25;;
66384;SDS011;53426;55.872;37.462;2022-08-02T04:49:30;14.70;;;4.20;;
66384;SDS011;53426;55.872;37.462;2022-08-02T04:51:56;12.57;;;4.10;;
66384;SDS011;53426;55.872;37.462;2022-08-02T04:54:21;7.00;;;4.03;;
66384;SDS011;53426;55.872;37.462;2022-08-02T04:56:50;8.50;;;3.92;;
66384;SDS011;53426;55.872;37.462;2022-08-02T04:59:16;7.72;;;4.40;;
66384;SDS011;53426;55.872;37.462;2022-08-02T05:01:41;14.18;;;3.90;;
66384;SDS011;53426;55.872;37.462;2022-08-02T05:04:07;12.00;;;4.28;;
66384;SDS011;53426;55.872;37.462;2022-08-02T05:06:33;10.02;;;3.67;;
66384;SDS011;53426;55.872;37.462;2022-08-02T05:08:59;9.63;;;4.38;;
66384;SDS011;53426;55.872;37.462;2022-08-02T05:11:24;12.15;;;3.85;;
66384;SDS011;53426;55.872;37.462;2022-08-02T05:13:50;21.20;;;4.35;;
66384;SDS011;53426;55.872;37.462;2022-08-02T05:16:16;12.98;;;4.13;;
66384;SDS011;53426;55.872;37.462;2022-08-02T05:18:42;12.90;;;4.10;;
66384;SDS011;53426;55.872;37.462;2022-08-02T05:21:08;7.22;;;3.90;;
66384;SDS011;53426;55.872;37.462;2022-08-02T05:23:34;9.88;;;4.45;;
66384;SDS011;53426;55.872;37.462;2022-08-02T05:25:59;6.63;;;3.78;;
66384;SDS011;53426;55.872;37.462;2022-08-02T05:28:25;6.25;;;3.20;;
66384;SDS011;53426;55.872;37.462;2022-08-02T05:30:51;14.32;;;4.05;;
66384;SDS011;53426;55.872;37.462;2022-08-02T05:33:17;11.43;;;3.78;;
66384;SDS011;53426;55.872;37.462;2022-08-02T05:35:43;5.68;;;3.33;;
66384;SDS011;53426;55.872;37.462;2022-08-02T05:38:08;6.60;;;3.33;;
66384;SDS011;53426;55.872;37.462;2022-08-02T05:40:34;7.45;;;3.67;;
66384;SDS011;53426;55.872;37.462;2022-08-02T05:43:00;8.07;;;3.00;;
66384;SDS011;53426;55.872;37.462;2022-08-02T05:45:26;11.85;;;3.60;;
66384;SDS011;53426;55.872;37.462;2022-08-02T05:47:52;7.47;;;3.28;;
66384;SDS011;53426;55.872;37.462;2022-08-02T05:50:18;9.63;;;3.22;;
66384;SDS011;53426;55.872;37.462;2022-08-02T05:52:45;10.60;;;3.55;;
66384;SDS011;53426;55.872;37.462;2022-08-02T05:55:16;8.57;;;3.10;;
66384;SDS011;53426;55.872;37.462;2022-08-02T05:57:50;8.25;;;3.15;;
66384;SDS011;53426;55.872;37.462;2022-08-02T06:00:22;3.58;;;2.85;;
66384;SDS011;53426;55.872;37.462;2022-08-02T06:05:22;15.18;;;3.30;;
66384;SDS011;53426;55.872;37.462;2022-08-02T06:07:51;8.50;;;2.97;;
66384;SDS011;53426;55.872;37.462;2022-08-02T06:10:20;10.95;;;3.13;;
66384;SDS011;53426;55.872;37.462;2022-08-02T06:12:53;5.65;;;2.67;;
66384;SDS011;53426;55.872;37.462;2022-08-02T06:15:21;5.28;;;2.70;;
66384;SDS011;53426;55.872;37.462;2022-08-02T06:17:46;8.10;;;2.55;;
66384;SDS011;53426;55.872;37.462;2022-08-02T06:20:13;5.57;;;2.67;;
66384;SDS011;53426;55.872;37.462;2022-08-02T06:22:40;10.10;;;2.80;;
66384;SDS011;53426;55.872;37.462;2022-08-02T06:25:10;11.00;;;2.80;;
66384;SDS011;53426;55.872;37.462;2022-08-02T06:27:37;13.30;;;3.38;;
66384;SDS011;53426;55.872;37.462;2022-08-02T06:30:05;16.05;;;3.40;;
66384;SDS011;53426;55.872;37.462;2022-08-02T06:32:35;11.43;;;2.70;;
66384;SDS011;53426;55.872;37.462;2022-08-02T06:35:03;11.57;;;3.35;;
66384;SDS011;53426;55.872;37.462;2022-08-02T06:37:51;7.93;;;2.78;;
66384;SDS011;53426;55.872;37.462;2022-08-02T06:40:24;10.45;;;3.03;;
66384;SDS011;53426;55.872;37.462;2022-08-02T06:45:50;7.20;;;2.75;;
66384;SDS011;53426;55.872;37.462;2022-08-02T06:48:15;5.20;;;2.50;;
66384;SDS011;53426;55.872;37.462;2022-08-02T06:50:41;7.18;;;2.90;;
66384;SDS011;53426;55.872;37.462;2022-08-02T06:53:08;5.03;;;2.38;;
66384;SDS011;53426;55.872;37.462;2022-08-02T06:55:36;7.30;;;2.20;;
66384;SDS011;53426;55.872;37.462;2022-08-02T06:58:02;10.85;;;2.40;;
66384;SDS011;53426;55.872;37.462;2022-08-02T07:00:31;4.95;;;2.30;;
66384;SDS011;53426;55.872;37.462;2022-08-02T07:02:57;4.10;;;2.42;;
66384;SDS011;53426;55.872;37.462;2022-08-02T07:05:26;6.65;;;2.50;;
66384;SDS011;53426;55.872;37.462;2022-08-02T07:07:52;6.68;;;2.22;;
66384;SDS011;53426;55.872;37.462;2022-08-02T07:10:18;8.95;;;2.50;;
66384;SDS011;53426;55.872;37.462;2022-08-02T07:12:44;10.85;;;3.08;;
66384;SDS011;53426;55.872;37.462;2022-08-02T07:15:10;3.42;;;2.33;;
66384;SDS011;53426;55.872;37.462;2022-08-02T07:17:36;9.27;;;2.60;;
66384;SDS011;53426;55.872;37.462;2022-08-02T07:20:03;8.18;;;2.30;;
66384;SDS011;53426;55.872;37.462;2022-08-02T07:22:30;3.78;;;2.15;;
66384;SDS011;53426;55.872;37.462;2022-08-02T07:24:56;6.00;;;2.20;;
66384;SDS011;53426;55.872;37.462;2022-08-02T07:33:10;7.10;;;1.48;;
66384;SDS011;53426;55.872;37.462;2022-08-02T07:35:36;8.80;;;2.10;;
66384;SDS011;53426;55.872;37.462;2022-08-02T07:38:05;3.30;;;1.75;;
66384;SDS011;53426;55.872;37.462;2022-08-02T07:40:31;4.80;;;2.60;;
66384;SDS011;53426;55.872;37.462;2022-08-02T07:42:57;9.75;;;2.35;;
66384;SDS011;53426;55.872;37.462;2022-08-02T07:45:23;4.00;;;2.05;;
66384;SDS011;53426;55.872;37.462;2022-08-02T07:47:55;6.93;;;2.35;;
66384;SDS011;53426;55.872;37.462;2022-08-02T07:50:22;6.57;;;2.50;;
66384;SDS011;53426;55.872;37.462;2022-08-02T07:52:48;5.70;;;2.25;;
66384;SDS011;53426;55.872;37.462;2022-08-02T07:55:14;3.45;;;2.78;;
66384;SDS011;53426;55.872;37.462;2022-08-02T07:57:42;7.68;;;2.30;;
66384;SDS011;53426;55.872;37.462;2022-08-02T08:00:09;3.25;;;1.90;;
66384;SDS011;53426;55.872;37.462;2022-08-02T08:02:38;2.03;;;1.90;;
66384;SDS011;53426;55.872;37.462;2022-08-02T08:05:04;7.15;;;2.05;;
66384;SDS011;53426;55.872;37.462;2022-08-02T08:07:31;3.30;;;1.48;;
66384;SDS011;53426;55.872;37.462;2022-08-02T08:10:03;2.90;;;1.73;;
66384;SDS011;53426;55.872;37.462;2022-08-02T08:12:30;1.45;;;1.20;;
66384;SDS011;53426;55.872;37.462;2022-08-02T08:14:56;2.25;;;1.30;;
66384;SDS011;53426;55.872;37.462;2022-08-02T08:17:22;2.05;;;1.63;;
66384;SDS011;53426;55.872;37.462;2022-08-02T08:19:48;3.67;;;1.48;;
66384;SDS011;53426;55.872;37.462;2022-08-02T08:22:16;6.10;;;1.65;;
66384;SDS011;53426;55.872;37.462;2022-08-02T08:24:48;1.88;;;1.77;;
66384;SDS011;53426;55.872;37.462;2022-08-02T08:27:17;3.30;;;1.42;;
66384;SDS011;53426;55.872;37.462;2022-08-02T08:29:43;6.63;;;2.30;;
66384;SDS011;53426;55.872;37.462;2022-08-02T08:32:11;5.55;;;1.80;;
66384;SDS011;53426;55.872;37.462;2022-08-02T08:34:38;3.33;;;1.42;;
66384;SDS011;53426;55.872;37.462;2022-08-02T08:37:10;2.05;;;1.88;;
66384;SDS011;53426;55.872;37.462;2022-08-02T08:42:31;4.10;;;1.50;;
66384;SDS011;53426;55.872;37.462;2022-08-02T08:44:58;3.58;;;1.75;;
66384;SDS011;53426;55.872;37.462;2022-08-02T08:47:34;3.58;;;1.70;;
66384;SDS011;53426;55.872;37.462;2022-08-02T08:50:07;4.20;;;1.77;;
66384;SDS011;53426;55.872;37.462;2022-08-02T08:52:41;2.10;;;1.85;;
66384;SDS011;53426;55.872;37.462;2022-08-02T08:55:12;4.27;;;1.77;;
66384;SDS011;53426;55.872;37.462;2022-08-02T08:58:43;13.68;;;2.42;;
66384;SDS011;53426;55.872;37.462;2022-08-02T09:01:11;8.20;;;2.20;;
66384;SDS011;53426;55.872;37.462;2022-08-02T09:03:39;4.93;;;2.10;;
66384;SDS011;53426;55.872;37.462;2022-08-02T09:06:12;4.10;;;2.25;;
66384;SDS011;53426;55.872;37.462;2022-08-02T09:09:13;5.05;;;2.00;;
66384;SDS011;53426;55.872;37.462;2022-08-02T09:11:42;5.15;;;2.15;;
66384;SDS011;53426;55.872;37.462;2022-08-02T09:14:08;8.55;;;2.50;;
66384;SDS011;53426;55.872;37.462;2022-08-02T09:16:38;7.32;;;2.55;;
66384;SDS011;53426;55.872;37.462;2022-08-02T09:19:21;9.13;;;2.40;;
66384;SDS011;53426;55.872;37.462;2022-08-02T09:21:50;4.28;;;2.83;;
66384;SDS011;53426;55.872;37.462;2022-08-02T09:24:24;7.75;;;4.30;;
66384;SDS011;53426;55.872;37.462;2022-08-02T09:26:50;2.75;;;2.10;;
66384;SDS011;53426;55.872;37.462;2022-08-02T09:29:18;2.65;;;2.40;;
66384;SDS011;53426;55.872;37.462;2022-08-02T09:31:47;3.95;;;2.55;;
66384;SDS011;53426;55.872;37.462;2022-08-02T09:34:14;4.50;;;2.10;;
66384;SDS011;53426;55.872;37.462;2022-08-02T09:36:44;2.90;;;2.60;;
66384;SDS011;53426;55.872;37.462;2022-08-02T09:39:11;5.03;;;2.20;;
66384;SDS011;53426;55.872;37.462;2022-08-02T09:41:40;4.28;;;2.55;;
66384;SDS011;53426;55.872;37.462;2022-08-02T09:44:10;5.22;;;2.30;;
66384;SDS011;53426;55.872;37.462;2022-08-02T09:46:39;9.65;;;2.83;;
66384;SDS011;53426;55.872;37.462;2022-08-02T09:49:10;8.95;;;2.35;;
66384;SDS011;53426;55.872;37.462;2022-08-02T09:54:15;6.95;;;2.42;;
66384;SDS011;53426;55.872;37.462;2022-08-02T09:59:17;8.57;;;2.55;;
66384;SDS011;53426;55.872;37.462;2022-08-02T10:01:45;3.10;;;2.88;;
66384;SDS011;53426;55.872;37.462;2022-08-02T10:04:13;6.28;;;2.42;;
66384;SDS011;53426;55.872;37.462;2022-08-02T10:06:40;9.95;;;3.15;;
66384;SDS011;53426;55.872;37.462;2022-08-02T10:09:09;3.95;;;2.20;;
66384;SDS011;53426;55.872;37.462;2022-08-02T10:11:36;2.72;;;2.42;;
66384;SDS011;53426;55.872;37.462;2022-08-02T10:14:03;3.97;;;2.80;;
66384;SDS011;53426;55.872;37.462;2022-08-02T10:16:35;2.55;;;2.35;;
66384;SDS011;53426;55.872;37.462;2022-08-02T10:19:05;4.33;;;2.73;;
66384;SDS011;53426;55.872;37.462;2022-08-02T10:24:18;5.63;;;2.88;;
66384;SDS011;53426;55.872;37.462;2022-08-02T10:26:48;5.32;;;2.80;;
66384;SDS011;53426;55.872;37.462;2022-08-02T10:29:15;6.18;;;2.22;;
66384;SDS011;53426;55.872;37.462;2022-08-02T10:31:52;5.63;;;3.28;;
66384;SDS011;53426;55.872;37.462;2022-08-02T10:34:26;4.03;;;2.80;;
66384;SDS011;53426;55.872;37.462;2022-08-02T10:37:00;6.80;;;2.67;;
66384;SDS011;53426;55.872;37.462;2022-08-02T10:39:27;3.58;;;2.38;;
66384;SDS011;53426;55.872;37.462;2022-08-02T10:42:05;6.57;;;2.58;;
66384;SDS011;53426;55.872;37.462;2022-08-02T10:44:31;2.20;;;2.00;;
66384;SDS011;53426;55.872;37.462;2022-08-02T10:52:15;4.85;;;2.30;;
66384;SDS011;53426;55.872;37.462;2022-08-02T10:54:43;2.45;;;2.20;;
66384;SDS011;53426;55.872;37.462;2022-08-02T10:57:24;5.00;;;2.42;;
66384;SDS011;53426;55.872;37.462;2022-08-02T11:02:44;6.93;;;2.20;;
66384;SDS011;53426;55.872;37.462;2022-08-02T11:05:12;5.15;;;2.80;;
66384;SDS011;53426;55.872;37.462;2022-08-02T11:07:44;4.25;;;2.47;;
66384;SDS011;53426;55.872;37.462;2022-08-02T11:10:27;4.30;;;2.13;;
66384;SDS011;53426;55.872;37.462;2022-08-02T11:13:08;9.15;;;2.47;;
66384;SDS011;53426;55.872;37.462;2022-08-02T11:18:20;2.45;;;2.25;;
66384;SDS011;53426;55.872;37.462;2022-08-02T11:21:06;2.53;;;2.33;;
66384;SDS011;53426;55.872;37.462;2022-08-02T11:23:49;8.75;;;2.47;;
66384;SDS011;53426;55.872;37.462;2022-08-02T11:28:57;5.30;;;2.60;;
66384;SDS011;53426;55.872;37.462;2022-08-02T11:31:23;6.05;;;2.47;;
66384;SDS011;53426;55.872;37.462;2022-08-02T11:33:49;5.90;;;2.33;;
66384;SDS011;53426;55.872;37.462;2022-08-02T11:36:16;8.55;;;2.65;;
66384;SDS011;53426;55.872;37.462;2022-08-02T11:38:43;7.22;;;2.30;;
66384;SDS011;53426;55.872;37.462;2022-08-02T11:41:09;8.63;;;2.72;;
66384;SDS011;53426;55.872;37.462;2022-08-02T11:43:43;8.93;;;3.10;;
66384;SDS011;53426;55.872;37.462;2022-08-02T11:46:13;5.78;;;3.17;;
66384;SDS011;53426;55.872;37.462;2022-08-02T11:48:40;5.30;;;2.55;;
66384;SDS011;53426;55.872;37.462;2022-08-02T11:51:12;5.38;;;2.60;;
66384;SDS011;53426;55.872;37.462;2022-08-02T11:53:43;12.48;;;2.80;;
66384;SDS011;53426;55.872;37.462;2022-08-02T11:56:17;6.85;;;3.00;;
66384;SDS011;53426;55.872;37.462;2022-08-02T11:59:07;4.78;;;2.58;;
66384;SDS011;53426;55.872;37.462;2022-08-02T12:01:35;5.55;;;2.20;;
66384;SDS011;53426;55.872;37.462;2022-08-02T12:04:03;5.25;;;2.55;;
66384;SDS011;53426;55.872;37.462;2022-08-02T12:06:30;3.13;;;2.42;;
66384;SDS011;53426;55.872;37.462;2022-08-02T12:09:18;6.63;;;2.90;;
66384;SDS011;53426;55.872;37.462;2022-08-02T12:11:43;4.57;;;2.58;;
66384;SDS011;53426;55.872;37.462;2022-08-02T12:14:13;7.82;;;2.88;;
66384;SDS011;53426;55.872;37.462;2022-08-02T12:16:39;6.97;;;3.25;;
66384;SDS011;53426;55.872;37.462;2022-08-02T12:19:24;3.88;;;2.78;;
66384;SDS011;53426;55.872;37.462;2022-08-02T12:24:42;10.68;;;5.60;;
66384;SDS011;53426;55.872;37.462;2022-08-02T12:27:26;5.72;;;2.50;;
66384;SDS011;53426;55.872;37.462;2022-08-02T12:30:04;6.05;;;3.17;;
66384;SDS011;53426;55.872;37.462;2022-08-02T12:32:35;13.38;;;3.47;;
66384;SDS011;53426;55.872;37.462;2022-08-02T12:37:28;10.05;;;3.30;;
66384;SDS011;53426;55.872;37.462;2022-08-02T12:39:54;35.65;;;4.07;;
66384;SDS011;53426;55.872;37.462;2022-08-02T12:42:21;10.07;;;2.97;;
66384;SDS011;53426;55.872;37.462;2022-08-02T12:44:49;5.03;;;3.20;;
66384;SDS011;53426;55.872;37.462;2022-08-02T12:47:17;7.25;;;3.28;;
66384;SDS011;53426;55.872;37.462;2022-08-02T12:49:42;4.55;;;2.80;;
66384;SDS011;53426;55.872;37.462;2022-08-02T12:52:21;4.03;;;3.15;;
66384;SDS011;53426;55.872;37.462;2022-08-02T12:54:48;3.38;;;2.80;;
66384;SDS011;53426;55.872;37.462;2022-08-02T12:57:15;11.52;;;3.20;;
66384;SDS011;53426;55.872;37.462;2022-08-02T12:59:48;10.32;;;2.53;;
66384;SDS011;53426;55.872;37.462;2022-08-02T13:02:16;8.15;;;2.60;;
66384;SDS011;53426;55.872;37.462;2022-08-02T13:04:42;23.70;;;4.13;;
66384;SDS011;53426;55.872;37.462;2022-08-02T13:07:08;3.72;;;2.58;;
66384;SDS011;53426;55.872;37.462;2022-08-02T13:09:35;22.17;;;4.00;;
66384;SDS011;53426;55.872;37.462;2022-08-02T13:12:02;16.88;;;3.38;;
66384;SDS011;53426;55.872;37.462;2022-08-02T13:14:29;8.60;;;2.40;;
66384;SDS011;53426;55.872;37.462;2022-08-02T13:16:55;6.32;;;2.53;;
66384;SDS011;53426;55.872;37.462;2022-08-02T13:19:21;4.80;;;2.85;;
66384;SDS011;53426;55.872;37.462;2022-08-02T13:21:48;3.90;;;2.30;;
66384;SDS011;53426;55.872;37.462;2022-08-02T13:24:14;10.98;;;3.20;;
66384;SDS011;53426;55.872;37.462;2022-08-02T13:26:41;6.15;;;2.50;;
66384;SDS011;53426;55.872;37.462;2022-08-02T13:29:08;8.32;;;3.53;;
66384;SDS011;53426;55.872;37.462;2022-08-02T13:31:35;7.35;;;2.40;;
66384;SDS011;53426;55.872;37.462;2022-08-02T13:34:03;3.00;;;2.78;;
66384;SDS011;53426;55.872;37.462;2022-08-02T13:36:30;4.85;;;2.60;;
66384;SDS011;53426;55.872;37.462;2022-08-02T13:38:56;11.27;;;2.38;;
66384;SDS011;53426;55.872;37.462;2022-08-02T13:41:22;5.20;;;2.42;;
66384;SDS011;53426;55.872;37.462;2022-08-02T13:43:49;7.40;;;2.53;;
66384;SDS011;53426;55.872;37.462;2022-08-02T13:46:15;15.45;;;3.13;;
66384;SDS011;53426;55.872;37.462;2022-08-02T13:48:41;13.85;;;2.95;;
66384;SDS011;53426;55.872;37.462;2022-08-02T13:51:07;13.93;;;3.05;;
66384;SDS011;53426;55.872;37.462;2022-08-02T13:53:39;10.75;;;2.72;;
66384;SDS011;53426;55.872;37.462;2022-08-02T13:56:05;6.20;;;2.72;;
66384;SDS011;53426;55.872;37.462;2022-08-02T13:58:31;3.22;;;2.45;;
66384;SDS011;53426;55.872;37.462;2022-08-02T14:00:57;8.15;;;3.00;;
66384;SDS011;53426;55.872;37.462;2022-08-02T14:03:22;3.47;;;2.20;;
66384;SDS011;53426;55.872;37.462;2022-08-02T14:05:48;4.95;;;2.47;;
66384;SDS011;53426;55.872;37.462;2022-08-02T14:08:18;4.32;;;2.42;;
66384;SDS011;53426;55.872;37.462;2022-08-02T14:10:47;9.90;;;2.38;;
66384;SDS011;53426;55.872;37.462;2022-08-02T14:13:15;9.02;;;5.07;;
66384;SDS011;53426;55.872;37.462;2022-08-02T14:15:41;6.50;;;2.10;;
66384;SDS011;53426;55.872;37.462;2022-08-02T14:18:07;5.95;;;2.20;;
66384;SDS011;53426;55.872;37.462;2022-08-02T14:20:34;7.90;;;2.53;;
66384;SDS011;53426;55.872;37.462;2022-08-02T14:23:00;4.35;;;2.20;;
66384;SDS011;53426;55.872;37.462;2022-08-02T14:25:26;3.88;;;2.25;;
66384;SDS011;53426;55.872;37.462;2022-08-02T14:27:52;4.78;;;2.63;;
66384;SDS011;53426;55.872;37.462;2022-08-02T14:30:18;7.03;;;2.00;;
66384;SDS011;53426;55.872;37.462;2022-08-02T14:32:46;4.00;;;2.20;;
66384;SDS011;53426;55.872;37.462;2022-08-02T14:35:11;12.82;;;2.58;;
66384;SDS011;53426;55.872;37.462;2022-08-02T14:37:37;7.75;;;2.63;;
66384;SDS011;53426;55.872;37.462;2022-08-02T14:40:03;7.30;;;2.58;;
66384;SDS011;53426;55.872;37.462;2022-08-02T14:42:29;3.33;;;2.42;;
66384;SDS011;53426;55.872;37.462;2022-08-02T14:44:55;4.85;;;2.53;;
66384;SDS011;53426;55.872;37.462;2022-08-02T14:47:21;7.90;;;2.60;;
66384;SDS011;53426;55.872;37.462;2022-08-02T14:49:46;4.55;;;2.40;;
66384;SDS011;53426;55.872;37.462;2022-08-02T14:52:12;8.88;;;2.78;;
66384;SDS011;53426;55.872;37.462;2022-08-02T14:54:38;3.83;;;2.20;;
66384;SDS011;53426;55.872;37.462;2022-08-02T14:57:05;3.72;;;2.70;;
66384;SDS011;53426;55.872;37.462;2022-08-02T14:59:31;7.15;;;2.55;;
66384;SDS011;53426;55.872;37.462;2022-08-02T15:02:18;3.00;;;2.30;;
66384;SDS011;53426;55.872;37.462;2022-08-02T15:04:44;5.95;;;2.70;;
66384;SDS011;53426;55.872;37.462;2022-08-02T15:07:10;3.03;;;2.30;;
66384;SDS011;53426;55.872;37.462;2022-08-02T15:09:37;11.70;;;2.90;;
66384;SDS011;53426;55.872;37.462;2022-08-02T15:12:03;5.80;;;2.80;;
66384;SDS011;53426;55.872;37.462;2022-08-02T15:14:28;14.63;;;3.60;;
66384;SDS011;53426;55.872;37.462;2022-08-02T15:16:54;30.98;;;3.65;;
66384;SDS011;53426;55.872;37.462;2022-08-02T15:19:21;20.92;;;2.80;;
66384;SDS011;53426;55.872;37.462;2022-08-02T15:21:47;16.67;;;2.72;;
66384;SDS011;53426;55.872;37.462;2022-08-02T15:24:12;20.92;;;3.92;;
66384;SDS011;53426;55.872;37.462;2022-08-02T15:26:38;12.23;;;2.78;;
66384;SDS011;53426;55.872;37.462;2022-08-02T15:29:04;5.30;;;2.55;;
66384;SDS011;53426;55.872;37.462;2022-08-02T15:31:30;12.60;;;3.00;;
66384;SDS011;53426;55.872;37.462;2022-08-02T15:33:56;20.20;;;3.67;;
66384;SDS011;53426;55.872;37.462;2022-08-02T15:36:21;22.88;;;3.60;;